createdAt,value
2023-05-23T00:00:26.606Z,56.9022
2023-05-23T00:01:29.639Z,56.9993
2023-05-23T00:02:32.624Z,59.4127
2023-05-23T00:03:35.541Z,63.7360
2023-05-23T00:04:38.425Z,60.1762
2023-05-23T00:05:41.675Z,60.4200
2023-05-23T00:06:44.326Z,63.1279
2023-05-23T00:07:47.260Z,57.8886
2023-05-23T00:08:50.188Z,58.5323
2023-05-23T00:09:53.209Z,62.2311
2023-05-23T00:10:56.092Z,59.6961
2023-05-23T00:11:59.038Z,60.3940
2023-05-23T00:13:01.985Z,62.9811
2023-05-23T00:14:04.921Z,58.6953
2023-05-23T00:15:07.874Z,58.3260
2023-05-23T00:16:10.836Z,55.8478
2023-05-23T00:17:13.933Z,56.9445
2023-05-23T00:18:16.728Z,57.3810
2023-05-23T00:19:19.746Z,56.2680
2023-05-23T00:20:22.618Z,58.2911
2023-05-23T00:21:25.559Z,59.1369
2023-05-23T00:22:28.518Z,60.1882
2023-05-23T00:23:31.451Z,56.4372
2023-05-23T00:24:34.409Z,59.5918
2023-05-23T00:25:37.465Z,57.3143
2023-05-23T00:26:40.319Z,60.2832
2023-05-23T00:27:43.251Z,57.6608
2023-05-23T00:28:46.193Z,55.8820
2023-05-23T00:29:49.139Z,57.8936
2023-05-23T00:30:52.130Z,55.5154
2023-05-23T00:31:55.033Z,59.5685
2023-05-23T00:32:58.175Z,58.8610
2023-05-23T00:34:00.939Z,58.1758
2023-05-23T00:35:03.896Z,55.1989
2023-05-23T00:36:06.837Z,56.6674
2023-05-23T00:37:09.783Z,52.5371
2023-05-23T00:38:12.736Z,53.7269
2023-05-23T00:39:15.709Z,56.5118
2023-05-23T00:40:18.654Z,55.5892
2023-05-23T00:41:21.666Z,54.7491
2023-05-23T00:42:24.560Z,58.0679
2023-05-23T00:43:27.471Z,57.4209
2023-05-23T00:44:30.443Z,57.0119
2023-05-23T00:45:33.395Z,56.1344
2023-05-23T00:46:36.400Z,51.8286
2023-05-23T00:47:39.294Z,60.0236
2023-05-23T00:48:42.304Z,56.1034
2023-05-23T00:49:45.181Z,55.4713
2023-05-23T00:50:48.103Z,54.7929
2023-05-23T00:51:51.080Z,53.1891
2023-05-23T00:52:54.017Z,56.8857
2023-05-23T00:53:56.940Z,52.1013
2023-05-23T00:54:59.876Z,52.0305
2023-05-23T00:56:02.826Z,53.5017
2023-05-23T00:57:05.772Z,55.4272
2023-05-23T00:58:08.724Z,53.7803
2023-05-23T00:59:11.670Z,53.6381
2023-05-23T01:00:14.611Z,52.4146
2023-05-23T01:01:17.685Z,57.7326
2023-05-23T01:02:20.535Z,54.1469
2023-05-23T01:03:23.589Z,53.7360
2023-05-23T01:04:26.880Z,56.3998
2023-05-23T01:05:29.345Z,58.0629
2023-05-23T01:06:32.271Z,55.4893
2023-05-23T01:07:35.226Z,53.5846
2023-05-23T01:08:38.168Z,54.8143
2023-05-23T01:09:41.144Z,52.3712
2023-05-23T01:10:44.080Z,50.2760
2023-05-23T01:11:47.049Z,53.1701
2023-05-23T01:12:49.981Z,53.0768
2023-05-23T01:13:52.901Z,52.2031
2023-05-23T01:14:55.847Z,52.2844
2023-05-23T01:16:01.913Z,53.8867
2023-05-23T01:17:01.725Z,51.8913
2023-05-23T01:18:04.793Z,53.1244
2023-05-23T01:19:07.731Z,48.9513
2023-05-23T01:20:10.715Z,57.1703
2023-05-23T01:21:13.521Z,54.9550
2023-05-23T01:22:16.451Z,55.8977
2023-05-23T01:23:19.401Z,55.5095
2023-05-23T01:24:22.423Z,56.4416
2023-05-23T01:25:25.291Z,61.0874
2023-05-23T01:26:28.276Z,59.7905
2023-05-23T01:27:31.229Z,59.1921
2023-05-23T01:28:34.155Z,64.2089
2023-05-23T01:29:37.108Z,60.7460
2023-05-23T01:30:40.086Z,60.6554
2023-05-23T01:31:43.060Z,59.1053
2023-05-23T01:32:46.008Z,61.9008
2023-05-23T01:33:48.923Z,58.3377
2023-05-23T01:34:51.899Z,57.9431
2023-05-23T01:35:54.929Z,60.7085
2023-05-23T01:36:57.788Z,57.9503
2023-05-23T01:38:00.738Z,62.1112
2023-05-23T01:39:03.709Z,58.3801
2023-05-23T01:40:06.651Z,62.6498
2023-05-23T01:41:09.619Z,61.0858
2023-05-23T01:42:12.554Z,61.9992
2023-05-23T01:43:15.524Z,61.8368
2023-05-23T01:44:19.745Z,60.2021
2023-05-23T01:45:21.408Z,59.9807
2023-05-23T01:46:24.431Z,63.2251
2023-05-23T01:47:27.486Z,62.6844
2023-05-23T01:48:30.324Z,61.4080
2023-05-23T01:49:33.213Z,61.0226
2023-05-23T01:50:36.148Z,61.6177
2023-05-23T01:51:39.194Z,66.0764
2023-05-23T01:52:42.068Z,59.3443
2023-05-23T01:53:45.044Z,59.3976
2023-05-23T01:54:48.020Z,59.0981
2023-05-23T01:55:50.954Z,61.3587
2023-05-23T01:56:53.879Z,61.1227
2023-05-23T01:57:56.836Z,61.6915
2023-05-23T01:58:59.768Z,60.2154
2023-05-23T02:00:02.715Z,59.8652
2023-05-23T02:01:05.713Z,61.4517
2023-05-23T02:02:08.685Z,59.5074
2023-05-23T02:03:11.687Z,62.3735
2023-05-23T02:04:14.529Z,60.6613
2023-05-23T02:05:17.487Z,62.9625
2023-05-23T02:06:20.444Z,60.5330
2023-05-23T02:07:23.578Z,62.0748
2023-05-23T02:08:26.338Z,62.4652
2023-05-23T02:09:29.288Z,63.4401
2023-05-23T02:10:32.258Z,63.6406
2023-05-23T02:11:35.184Z,60.1986
2023-05-23T02:12:38.234Z,59.4184
2023-05-23T02:13:41.129Z,59.5956
2023-05-23T02:14:44.045Z,61.5338
2023-05-23T02:15:46.987Z,56.2867
2023-05-23T02:16:49.983Z,59.4996
2023-05-23T02:17:52.903Z,56.3466
2023-05-23T02:18:55.872Z,57.8081
2023-05-23T02:19:58.767Z,59.6959
2023-05-23T02:21:01.729Z,60.4360
2023-05-23T02:22:04.674Z,60.1517
2023-05-23T02:23:07.716Z,63.4959
2023-05-23T02:24:10.573Z,62.8242
2023-05-23T02:25:13.617Z,60.1311
2023-05-23T02:26:16.452Z,57.3257
2023-05-23T02:27:19.404Z,57.7980
2023-05-23T02:28:22.338Z,58.2862
2023-05-23T02:29:25.331Z,57.5974
2023-05-23T02:30:28.212Z,60.1421
2023-05-23T02:31:31.356Z,58.3026
2023-05-23T02:32:34.150Z,57.9198
2023-05-23T02:33:37.107Z,58.8847
2023-05-23T02:34:40.042Z,57.0864
2023-05-23T02:35:43.058Z,61.6669
2023-05-23T02:36:45.888Z,59.8085
2023-05-23T02:37:48.890Z,60.3594
2023-05-23T02:38:51.885Z,59.4516
2023-05-23T02:39:54.760Z,57.2201
2023-05-23T02:40:57.690Z,54.7137
2023-05-23T02:42:00.626Z,57.3792
2023-05-23T02:43:03.594Z,57.2263
2023-05-23T02:44:06.572Z,58.8640
2023-05-23T02:45:09.504Z,56.0511
2023-05-23T02:46:12.457Z,61.2466
2023-05-23T02:47:15.353Z,58.0649
2023-05-23T02:48:18.322Z,55.5050
2023-05-23T02:49:21.241Z,60.3456
2023-05-23T02:50:24.224Z,58.2125
2023-05-23T02:51:27.183Z,56.3372
2023-05-23T02:52:30.109Z,61.6654
2023-05-23T02:53:33.120Z,61.0347
2023-05-23T02:54:36.144Z,59.7592
2023-05-23T02:55:39.471Z,58.7880
2023-05-23T02:56:41.941Z,61.2955
2023-05-23T02:57:44.962Z,55.3433
2023-05-23T02:58:47.876Z,58.6833
2023-05-23T02:59:50.853Z,59.8713
2023-05-23T03:00:53.753Z,59.5619
2023-05-23T03:01:56.753Z,60.6392
2023-05-23T03:02:59.818Z,59.4849
2023-05-23T03:04:02.659Z,58.0129
2023-05-23T03:05:05.513Z,61.2440
2023-05-23T03:06:08.498Z,62.1536
2023-05-23T03:07:20.417Z,62.6595
2023-05-23T03:08:14.325Z,61.9131
2023-05-23T03:09:17.334Z,67.2934
2023-05-23T03:10:20.369Z,65.9007
2023-05-23T03:11:23.198Z,64.0249
2023-05-23T03:12:26.123Z,63.7486
2023-05-23T03:13:29.056Z,62.0516
2023-05-23T03:14:32.007Z,65.2188
2023-05-23T03:15:34.954Z,65.5632
2023-05-23T03:16:37.960Z,70.0251
2023-05-23T03:17:40.865Z,66.5351
2023-05-23T03:18:43.801Z,72.9849
2023-05-23T03:19:46.731Z,70.1735
2023-05-23T03:20:49.727Z,71.4438
2023-05-23T03:21:52.625Z,68.7425
2023-05-23T03:22:55.590Z,70.1018
2023-05-23T03:23:58.575Z,71.6396
2023-05-23T03:25:01.472Z,75.9257
2023-05-23T03:26:04.512Z,73.5244
2023-05-23T03:27:07.468Z,77.0671
2023-05-23T03:28:10.354Z,75.3334
2023-05-23T03:29:13.249Z,74.0012
2023-05-23T03:30:16.245Z,76.4095
2023-05-23T03:31:19.218Z,73.1091
2023-05-23T03:32:22.144Z,76.4281
2023-05-23T03:33:25.038Z,75.5922
2023-05-23T03:34:28.004Z,76.2936
2023-05-23T03:35:30.992Z,79.9296
2023-05-23T03:36:33.893Z,79.4578
2023-05-23T03:37:36.833Z,78.2583
2023-05-23T03:38:39.781Z,77.9346
2023-05-23T03:39:42.725Z,73.5578
2023-05-23T03:40:45.682Z,79.2552
2023-05-23T03:41:48.731Z,77.4750
2023-05-23T03:42:51.579Z,77.2156
2023-05-23T03:43:54.527Z,124.3302
2023-05-23T03:44:57.468Z,123.8406
2023-05-23T03:46:00.523Z,769.1492
2023-05-23T03:47:03.412Z,364.7168
2023-05-23T03:48:06.363Z,104.5144
2023-05-23T03:49:09.299Z,78.6797
2023-05-23T03:50:12.215Z,73.2821
2023-05-23T03:51:15.200Z,69.0941
2023-05-23T03:52:18.139Z,65.8925
2023-05-23T03:53:21.060Z,65.3121
2023-05-23T03:54:23.998Z,62.5251
2023-05-23T03:55:26.965Z,124.1833
2023-05-23T03:56:29.952Z,116.3085
2023-05-23T03:57:32.975Z,86.8193
2023-05-23T03:58:35.801Z,69.4675
2023-05-23T03:59:38.735Z,71.7815
2023-05-23T04:00:41.740Z,71.8564
2023-05-23T04:01:44.632Z,68.1815
2023-05-23T04:02:47.673Z,65.6069
2023-05-23T04:03:50.666Z,64.3058
2023-05-23T04:04:53.467Z,60.1048
2023-05-23T04:05:56.457Z,63.5496
2023-05-23T04:06:59.362Z,62.7614
2023-05-23T04:08:02.414Z,65.9055
2023-05-23T04:09:05.261Z,65.6358
2023-05-23T04:10:08.202Z,69.0252
2023-05-23T04:11:11.261Z,93.3100
2023-05-23T04:12:14.093Z,67.0275
2023-05-23T04:13:17.135Z,82.4605
2023-05-23T04:14:19.990Z,68.6117
2023-05-23T04:15:22.928Z,63.7317
2023-05-23T04:16:25.920Z,69.6583
2023-05-23T04:17:28.882Z,70.6270
2023-05-23T04:18:31.797Z,68.9365
2023-05-23T04:19:34.762Z,66.2586
2023-05-23T04:20:37.858Z,77.4639
2023-05-23T04:21:40.640Z,73.4938
2023-05-23T04:22:43.620Z,73.3782
2023-05-23T04:23:46.540Z,70.6495
2023-05-23T04:24:49.496Z,73.7279
2023-05-23T04:25:52.439Z,72.0420
2023-05-23T04:26:55.501Z,74.1902
2023-05-23T04:27:58.339Z,69.8066
2023-05-23T04:29:01.395Z,71.3270
2023-05-23T04:30:04.372Z,72.1620
2023-05-23T04:31:07.246Z,82.7865
2023-05-23T04:32:10.176Z,69.2061
2023-05-23T04:33:13.118Z,67.8108
2023-05-23T04:34:16.095Z,67.5519
2023-05-23T04:35:19.019Z,69.2811
2023-05-23T04:36:21.993Z,69.8210
2023-05-23T04:37:24.923Z,67.6218
2023-05-23T04:38:27.883Z,65.6514
2023-05-23T04:39:30.904Z,64.2941
2023-05-23T04:40:33.806Z,61.3485
2023-05-23T04:41:36.835Z,65.9917
2023-05-23T04:42:39.726Z,66.8971
2023-05-23T04:43:42.753Z,66.3377
2023-05-23T04:44:45.734Z,66.7238
2023-05-23T04:45:48.605Z,66.7550
2023-05-23T04:46:51.624Z,65.4995
2023-05-23T04:47:54.604Z,61.1002
2023-05-23T04:48:57.443Z,61.4910
2023-05-23T04:50:00.375Z,65.0781
2023-05-23T04:51:03.350Z,61.6599
2023-05-23T04:52:06.444Z,63.3392
2023-05-23T04:53:09.255Z,62.5183
2023-05-23T04:54:12.204Z,67.8052
2023-05-23T04:55:15.158Z,67.2801
2023-05-23T04:56:20.382Z,68.0401
2023-05-23T04:57:21.169Z,65.1041
2023-05-23T04:58:24.025Z,62.4960
2023-05-23T04:59:27.047Z,66.9434
2023-05-23T05:00:30.031Z,67.0681
2023-05-23T05:01:32.930Z,67.1868
2023-05-23T05:02:35.857Z,66.7725
2023-05-23T05:03:38.833Z,67.5895
2023-05-23T05:04:41.742Z,67.1406
2023-05-23T05:05:44.695Z,69.2889
2023-05-23T05:06:47.646Z,69.0804
2023-05-23T05:07:50.616Z,71.2270
2023-05-23T05:08:53.545Z,68.1926
2023-05-23T05:09:57.622Z,70.5593
2023-05-23T05:10:59.466Z,71.3964
2023-05-23T05:12:02.540Z,67.4082
2023-05-23T05:13:05.387Z,68.5624
2023-05-23T05:14:08.359Z,73.2160
2023-05-23T05:15:11.297Z,66.2025
2023-05-23T05:16:14.371Z,67.1579
2023-05-23T05:17:17.203Z,69.6935
2023-05-23T05:18:20.168Z,69.6186
2023-05-23T05:19:23.122Z,72.4899
2023-05-23T05:20:26.067Z,69.6472
2023-05-23T05:21:29.013Z,68.5341
2023-05-23T05:22:32.003Z,70.5216
2023-05-23T05:23:34.950Z,69.9692
2023-05-23T05:24:37.890Z,73.0245
2023-05-23T05:25:40.825Z,68.6327
2023-05-23T05:26:43.805Z,67.6361
2023-05-23T05:27:46.757Z,68.5807
2023-05-23T05:28:49.737Z,68.5673
2023-05-23T05:29:52.669Z,71.9304
2023-05-23T05:30:55.761Z,67.0310
2023-05-23T05:31:58.671Z,68.3868
2023-05-23T05:33:01.562Z,72.3822
2023-05-23T05:34:04.584Z,69.5383
2023-05-23T05:35:07.465Z,69.3166
2023-05-23T05:36:10.419Z,70.6261
2023-05-23T05:37:13.365Z,71.6000
2023-05-23T05:38:16.317Z,68.3605
2023-05-23T05:39:19.292Z,73.1817
2023-05-23T05:40:22.277Z,72.4394
2023-05-23T05:41:25.216Z,71.1721
2023-05-23T05:42:28.145Z,70.4559
2023-05-23T05:43:31.092Z,70.2270
2023-05-23T05:44:34.066Z,66.9526
2023-05-23T05:45:37.017Z,71.0148
2023-05-23T05:46:40.007Z,71.7089
2023-05-23T05:47:43.078Z,70.7121
2023-05-23T05:48:45.866Z,73.7290
2023-05-23T05:49:49.038Z,72.5096
2023-05-23T05:50:51.781Z,73.6510
2023-05-23T05:51:54.761Z,72.5416
2023-05-23T05:52:57.725Z,73.5000
2023-05-23T05:54:00.639Z,75.9015
2023-05-23T05:55:03.602Z,77.1137
2023-05-23T05:56:06.625Z,71.9803
2023-05-23T05:57:09.489Z,72.6662
2023-05-23T05:58:12.467Z,75.7622
2023-05-23T05:59:15.408Z,77.6835
2023-05-23T06:00:18.366Z,71.0708
2023-05-23T06:01:21.316Z,77.0919
2023-05-23T06:02:24.469Z,75.9280
2023-05-23T06:03:27.416Z,78.4809
2023-05-23T06:04:30.410Z,77.7729
2023-05-23T06:05:33.132Z,77.1436
2023-05-23T06:06:36.118Z,76.9436
2023-05-23T06:07:39.041Z,68.0805
2023-05-23T06:08:42.042Z,69.5814
2023-05-23T06:09:44.953Z,73.7116
2023-05-23T06:10:47.911Z,73.8339
2023-05-23T06:11:50.882Z,74.3413
2023-05-23T06:12:53.830Z,75.0082
2023-05-23T06:13:56.789Z,75.2855
2023-05-23T06:14:59.855Z,74.7949
2023-05-23T06:16:02.745Z,71.4652
2023-05-23T06:17:05.631Z,76.0630
2023-05-23T06:18:08.616Z,77.8456
2023-05-23T06:19:11.689Z,79.4984
2023-05-23T06:20:14.483Z,78.0825
2023-05-23T06:21:17.436Z,73.6784
2023-05-23T06:22:20.409Z,74.9966
2023-05-23T06:23:23.331Z,74.2942
2023-05-23T06:24:26.284Z,74.7571
2023-05-23T06:25:29.254Z,74.9689
2023-05-23T06:26:32.213Z,77.6516
2023-05-23T06:27:35.213Z,79.5834
2023-05-23T06:28:38.120Z,77.9388
2023-05-23T06:29:41.056Z,81.9908
2023-05-23T06:30:44.149Z,80.2003
2023-05-23T06:31:47.038Z,80.9306
2023-05-23T06:32:49.988Z,76.1850
2023-05-23T06:33:52.909Z,80.6837
2023-05-23T06:34:55.916Z,81.1180
2023-05-23T06:35:58.772Z,75.9030
2023-05-23T06:37:01.728Z,79.6798
2023-05-23T06:38:04.692Z,80.1829
2023-05-23T06:39:07.639Z,78.7019
2023-05-23T06:40:10.650Z,77.3515
2023-05-23T06:41:13.533Z,74.6196
2023-05-23T06:42:16.497Z,77.4494
2023-05-23T06:43:19.443Z,73.9189
2023-05-23T06:44:22.414Z,77.6961
2023-05-23T06:45:25.356Z,79.0598
2023-05-23T06:46:28.399Z,77.9520
2023-05-23T06:47:31.282Z,88.0895
2023-05-23T06:48:34.207Z,92.5975
2023-05-23T06:49:37.177Z,96.5558
2023-05-23T06:50:40.401Z,101.7650
2023-05-23T06:51:43.311Z,101.3116
2023-05-23T06:52:46.062Z,100.8364
2023-05-23T06:53:48.996Z,104.0495
2023-05-23T06:54:51.941Z,102.9401
2023-05-23T06:55:54.922Z,103.3243
2023-05-23T06:56:57.894Z,101.2140
2023-05-23T06:58:00.860Z,102.7265
2023-05-23T06:59:03.768Z,104.2425
2023-05-23T07:00:06.706Z,100.3940
2023-05-23T07:01:09.760Z,100.0890
2023-05-23T07:02:12.699Z,102.0473
2023-05-23T07:03:15.652Z,104.2080
2023-05-23T07:04:18.598Z,105.1125
2023-05-23T07:05:21.711Z,104.6404
2023-05-23T07:06:24.612Z,97.0996
2023-05-23T07:07:27.485Z,99.9747
2023-05-23T07:08:30.414Z,99.8596
2023-05-23T07:09:33.398Z,102.6095
2023-05-23T07:10:36.333Z,99.2432
2023-05-23T07:11:39.335Z,100.4025
2023-05-23T07:12:42.224Z,97.9018
2023-05-23T07:13:45.189Z,98.7489
2023-05-23T07:14:48.134Z,101.0781
2023-05-23T07:15:51.206Z,97.0698
2023-05-23T07:16:54.099Z,107.2757
2023-05-23T07:17:57.041Z,111.6030
2023-05-23T07:19:00.005Z,113.1509
2023-05-23T07:20:02.910Z,108.8259
2023-05-23T07:21:05.869Z,106.1651
2023-05-23T07:22:08.933Z,108.2865
2023-05-23T07:23:11.831Z,109.2965
2023-05-23T07:24:14.740Z,105.1437
2023-05-23T07:25:17.679Z,106.8049
2023-05-23T07:26:20.640Z,108.5434
2023-05-23T07:27:23.569Z,112.3152
2023-05-23T07:28:26.531Z,114.9078
2023-05-23T07:29:29.525Z,117.9656
2023-05-23T07:30:33.472Z,115.2405
2023-05-23T07:31:35.429Z,115.8227
2023-05-23T07:32:38.452Z,112.3859
2023-05-23T07:33:41.319Z,116.3375
2023-05-23T07:34:44.263Z,116.7533
2023-05-23T07:35:47.259Z,114.3516
2023-05-23T07:36:50.175Z,115.4900
2023-05-23T07:37:53.161Z,114.8859
2023-05-23T07:38:56.100Z,109.2663
2023-05-23T07:39:59.024Z,114.5010
2023-05-23T07:41:10.686Z,113.4016
2023-05-23T07:42:04.927Z,111.1807
2023-05-23T07:43:07.895Z,116.6834
2023-05-23T07:44:10.835Z,117.0491
2023-05-23T07:45:13.795Z,115.9609
2023-05-23T07:46:16.848Z,112.2533
2023-05-23T07:47:19.696Z,113.9264
2023-05-23T07:48:22.726Z,114.1323
2023-05-23T07:49:25.614Z,117.1908
2023-05-23T07:50:28.589Z,113.4192
2023-05-23T07:51:31.535Z,115.9949
2023-05-23T07:52:34.482Z,111.3232
2023-05-23T07:53:37.443Z,114.3754
2023-05-23T07:54:40.386Z,115.0098
2023-05-23T07:55:43.390Z,106.4536
2023-05-23T07:56:46.316Z,123.0427
2023-05-23T07:57:49.304Z,119.4561
2023-05-23T07:58:52.200Z,118.5535
2023-05-23T07:59:55.162Z,120.4025
2023-05-23T08:00:58.128Z,122.7974
2023-05-23T08:02:01.109Z,122.0948
2023-05-23T08:03:04.042Z,118.8702
2023-05-23T08:04:07.006Z,120.1460
2023-05-23T08:05:09.931Z,121.5093
2023-05-23T08:06:12.884Z,125.5482
2023-05-23T08:07:17.944Z,127.6019
2023-05-23T08:08:18.807Z,123.5614
2023-05-23T08:09:21.768Z,121.7416
2023-05-23T08:10:24.706Z,122.0921
2023-05-23T08:11:27.661Z,118.0086
2023-05-23T08:12:30.591Z,118.5169
2023-05-23T08:13:33.561Z,123.8825
2023-05-23T08:14:49.656Z,123.5281
2023-05-23T08:15:39.557Z,116.8060
2023-05-23T08:16:42.463Z,125.0162
2023-05-23T08:17:45.464Z,120.4593
2023-05-23T08:18:48.368Z,120.0621
2023-05-23T08:19:51.322Z,123.3487
2023-05-23T08:20:54.267Z,123.3816
2023-05-23T08:21:57.207Z,124.1681
2023-05-23T08:23:00.211Z,123.2241
2023-05-23T08:24:03.159Z,119.5653
2023-05-23T08:25:06.091Z,124.4215
2023-05-23T08:26:09.027Z,124.9482
2023-05-23T08:27:11.978Z,128.1176
2023-05-23T08:28:14.990Z,123.7735
2023-05-23T08:29:17.945Z,126.2159
2023-05-23T08:30:20.887Z,123.4154
2023-05-23T08:31:23.826Z,124.3850
2023-05-23T08:32:26.779Z,127.0061
2023-05-23T08:33:29.696Z,126.8980
2023-05-23T08:34:32.679Z,123.0977
2023-05-23T08:35:35.604Z,124.5919
2023-05-23T08:36:38.561Z,119.2488
2023-05-23T08:37:41.566Z,127.0803
2023-05-23T08:38:44.472Z,124.1637
2023-05-23T08:39:47.464Z,124.9726
2023-05-23T08:40:50.388Z,121.7562
2023-05-23T08:41:53.314Z,121.5619
2023-05-23T08:42:56.393Z,125.8609
2023-05-23T08:43:59.237Z,123.9452
2023-05-23T08:45:02.246Z,122.2609
2023-05-23T08:46:05.154Z,123.9520
2023-05-23T08:47:08.144Z,123.4227
2023-05-23T08:48:11.035Z,122.1369
2023-05-23T08:49:13.983Z,125.3119
2023-05-23T08:50:18.700Z,126.0457
2023-05-23T08:51:19.938Z,120.4005
2023-05-23T08:52:22.824Z,119.2856
2023-05-23T08:53:25.778Z,122.4615
2023-05-23T08:54:28.736Z,124.1719
2023-05-23T08:55:31.677Z,124.9211
2023-05-23T08:56:34.740Z,121.6531
2023-05-23T08:57:37.560Z,121.3384
2023-05-23T08:58:40.513Z,126.5846
2023-05-23T08:59:43.489Z,122.1755
2023-05-23T09:00:46.413Z,125.7021
2023-05-23T09:01:49.403Z,124.7055
2023-05-23T09:02:52.317Z,121.2296
2023-05-23T09:03:55.242Z,125.9970
2023-05-23T09:04:58.188Z,121.9982
2023-05-23T09:06:01.212Z,124.9854
2023-05-23T09:07:04.140Z,120.3427
2023-05-23T09:08:07.055Z,123.9591
2023-05-23T09:09:09.977Z,128.9913
2023-05-23T09:10:12.954Z,123.8718
2023-05-23T09:11:15.884Z,122.4089
2023-05-23T09:12:18.849Z,126.0859
2023-05-23T09:13:21.804Z,126.8122
2023-05-23T09:14:24.743Z,125.4086
2023-05-23T09:15:27.746Z,121.1593
2023-05-23T09:16:30.699Z,125.6159
2023-05-23T09:17:33.763Z,122.1015
2023-05-23T09:18:36.570Z,121.9495
2023-05-23T09:19:39.677Z,124.2744
2023-05-23T09:20:42.620Z,127.6990
2023-05-23T09:21:45.436Z,126.3979
2023-05-23T09:22:48.386Z,126.3413
2023-05-23T09:23:51.362Z,129.7841
2023-05-23T09:24:54.369Z,131.5425
2023-05-23T09:25:57.256Z,129.9952
2023-05-23T09:27:00.205Z,128.6463
2023-05-23T09:28:03.173Z,140.7983
2023-05-23T09:29:06.139Z,137.1801
2023-05-23T09:30:09.103Z,135.2579
2023-05-23T09:31:12.053Z,140.7109
2023-05-23T09:32:14.971Z,144.6396
2023-05-23T09:33:17.942Z,163.4397
2023-05-23T09:34:20.902Z,154.8673
2023-05-23T09:35:23.887Z,160.1352
2023-05-23T09:36:26.793Z,161.0337
2023-05-23T09:37:29.815Z,158.9928
2023-05-23T09:38:32.672Z,154.5239
2023-05-23T09:39:35.651Z,160.0687
2023-05-23T09:40:38.681Z,157.4023
2023-05-23T09:41:41.555Z,149.6039
2023-05-23T09:42:44.505Z,154.2992
2023-05-23T09:43:47.482Z,151.7270
2023-05-23T09:44:50.521Z,150.4716
2023-05-23T09:45:53.409Z,151.4331
2023-05-23T09:46:56.459Z,158.1158
2023-05-23T09:47:59.296Z,158.6688
2023-05-23T09:49:02.228Z,148.4679
2023-05-23T09:50:05.177Z,151.2124
2023-05-23T09:51:08.129Z,155.8450
2023-05-23T09:52:11.079Z,155.6900
2023-05-23T09:53:14.014Z,157.9705
2023-05-23T09:54:16.975Z,155.5696
2023-05-23T09:55:19.903Z,144.8312
2023-05-23T09:56:22.875Z,147.5687
2023-05-23T09:57:25.819Z,147.9068
2023-05-23T09:58:28.756Z,150.0167
2023-05-23T09:59:31.799Z,158.0128
2023-05-23T10:00:34.638Z,159.8982
2023-05-23T10:01:37.762Z,151.8229
2023-05-23T10:02:40.670Z,154.5869
2023-05-23T10:03:43.502Z,162.9308
2023-05-23T10:04:46.565Z,154.6044
2023-05-23T10:05:49.456Z,157.0634
2023-05-23T10:06:52.374Z,157.1956
2023-05-23T10:07:55.294Z,157.5029
2023-05-23T10:08:58.235Z,161.0004
2023-05-23T10:10:01.220Z,156.1358
2023-05-23T10:11:04.164Z,156.9473
2023-05-23T10:12:07.117Z,161.8636
2023-05-23T10:13:10.050Z,155.7846
2023-05-23T10:14:12.982Z,150.8799
2023-05-23T10:15:15.951Z,154.6615
2023-05-23T10:16:18.926Z,155.4843
2023-05-23T10:17:21.942Z,157.9375
2023-05-23T10:18:24.765Z,159.2927
2023-05-23T10:19:27.763Z,158.5665
2023-05-23T10:20:30.711Z,160.2619
2023-05-23T10:21:33.667Z,147.1098
2023-05-23T10:22:36.563Z,153.4822
2023-05-23T10:23:39.512Z,154.8576
2023-05-23T10:24:42.495Z,153.9836
2023-05-23T10:25:45.420Z,161.6435
2023-05-23T10:26:48.343Z,161.7846
2023-05-23T10:27:53.711Z,166.4159
2023-05-23T10:28:54.250Z,165.8409
2023-05-23T10:29:57.210Z,160.7790
2023-05-23T10:31:00.231Z,160.8865
2023-05-23T10:32:03.061Z,160.7595
2023-05-23T10:33:06.111Z,161.6592
2023-05-23T10:34:08.980Z,169.9396
2023-05-23T10:35:11.930Z,161.8428
2023-05-23T10:36:14.984Z,155.8701
2023-05-23T10:37:17.804Z,159.8604
2023-05-23T10:38:20.810Z,162.1830
2023-05-23T10:39:23.692Z,155.0583
2023-05-23T10:40:26.658Z,153.0047
2023-05-23T10:41:29.634Z,150.6523
2023-05-23T10:42:32.543Z,155.8298
2023-05-23T10:43:35.485Z,152.5439
2023-05-23T10:44:38.439Z,150.7351
2023-05-23T10:45:41.463Z,153.2834
2023-05-23T10:46:44.372Z,141.6269
2023-05-23T10:47:47.353Z,143.9592
2023-05-23T10:48:50.237Z,140.9756
2023-05-23T10:49:53.163Z,143.2796
2023-05-23T10:50:56.132Z,142.1160
2023-05-23T10:51:59.070Z,145.3887
2023-05-23T10:53:02.060Z,135.8755
2023-05-23T10:54:04.984Z,139.9807
2023-05-23T10:55:07.933Z,144.1625
2023-05-23T10:56:10.905Z,131.8489
2023-05-23T10:57:13.870Z,136.8452
2023-05-23T10:58:16.810Z,131.8986
2023-05-23T10:59:19.757Z,135.5971
2023-05-23T11:00:22.710Z,136.7072
2023-05-23T11:01:25.717Z,140.3499
2023-05-23T11:02:28.683Z,131.8090
2023-05-23T11:03:31.691Z,132.3874
2023-05-23T11:04:34.528Z,133.2096
2023-05-23T11:05:37.473Z,137.4072
2023-05-23T11:06:40.525Z,140.6492
2023-05-23T11:07:43.385Z,136.2139
2023-05-23T11:08:48.301Z,137.8471
2023-05-23T11:09:49.345Z,132.5508
2023-05-23T11:10:52.315Z,130.1718
2023-05-23T11:11:55.252Z,124.3894
2023-05-23T11:12:58.183Z,125.9238
2023-05-23T11:14:01.114Z,132.8597
2023-05-23T11:15:04.069Z,138.3097
2023-05-23T11:16:07.069Z,135.0309
2023-05-23T11:17:09.973Z,130.2550
2023-05-23T11:18:12.910Z,127.1203
2023-05-23T11:19:15.882Z,132.7471
2023-05-23T11:20:18.830Z,140.2937
2023-05-23T11:21:21.752Z,136.8853
2023-05-23T11:22:24.717Z,131.2193
2023-05-23T11:23:27.658Z,130.1232
2023-05-23T11:24:30.623Z,133.9812
2023-05-23T11:25:33.562Z,131.2481
2023-05-23T11:26:36.504Z,132.4350
2023-05-23T11:27:39.471Z,135.5647
2023-05-23T11:28:42.427Z,131.5081
2023-05-23T11:29:45.349Z,133.4219
2023-05-23T11:30:48.302Z,136.1197
2023-05-23T11:31:51.422Z,139.5773
2023-05-23T11:32:54.228Z,132.9162
2023-05-23T11:33:57.161Z,136.4100
2023-05-23T11:35:00.121Z,136.7334
2023-05-23T11:36:03.061Z,142.8123
2023-05-23T11:37:06.015Z,133.5175
2023-05-23T11:38:08.981Z,135.9234
2023-05-23T11:39:11.900Z,134.9913
2023-05-23T11:40:14.878Z,138.9807
2023-05-23T11:41:17.843Z,141.1620
2023-05-23T11:42:20.768Z,146.4796
2023-05-23T11:43:23.726Z,139.8636
2023-05-23T11:44:26.844Z,125.7242
2023-05-23T11:45:29.646Z,121.9070
2023-05-23T11:46:32.634Z,125.8657
2023-05-23T11:47:35.646Z,123.4934
2023-05-23T11:48:38.505Z,112.4665
2023-05-23T11:49:41.501Z,118.1863
2023-05-23T11:50:44.432Z,111.1472
2023-05-23T11:51:47.389Z,105.0956
2023-05-23T11:52:50.359Z,106.4284
2023-05-23T11:53:53.284Z,101.6685
2023-05-23T11:54:58.937Z,112.6858
2023-05-23T11:55:59.213Z,115.2948
2023-05-23T11:57:02.156Z,104.3419
2023-05-23T11:58:05.139Z,103.2962
2023-05-23T11:59:08.076Z,101.5934
2023-05-23T12:00:11.071Z,105.7940
2023-05-23T12:01:13.996Z,112.7367
2023-05-23T12:02:16.980Z,115.8961
2023-05-23T12:03:20.188Z,117.3090
2023-05-23T12:04:23.036Z,122.2233
2023-05-23T12:05:25.808Z,116.4376
2023-05-23T12:06:28.782Z,115.3582
2023-05-23T12:07:31.778Z,106.6433
2023-05-23T12:08:34.827Z,103.3201
2023-05-23T12:09:37.699Z,107.4330
2023-05-23T12:10:40.798Z,101.5870
2023-05-23T12:11:43.577Z,105.2477
2023-05-23T12:12:46.534Z,103.2908
2023-05-23T12:13:49.468Z,104.6455
2023-05-23T12:14:52.486Z,110.1722
2023-05-23T12:15:55.532Z,104.0804
2023-05-23T12:16:58.356Z,105.4650
2023-05-23T12:18:01.447Z,100.2843
2023-05-23T12:19:04.279Z,102.3071
2023-05-23T12:20:07.224Z,100.7963
2023-05-23T12:21:10.126Z,100.3558
2023-05-23T12:22:13.148Z,110.2509
2023-05-23T12:23:16.023Z,113.4295
2023-05-23T12:24:18.981Z,115.7077
2023-05-23T12:25:21.980Z,118.6801
2023-05-23T12:26:24.909Z,114.4449
2023-05-23T12:27:27.868Z,110.6695
2023-05-23T12:28:30.812Z,108.1648
2023-05-23T12:29:34.993Z,110.9483
2023-05-23T12:30:36.714Z,103.4106